createdAt,value
2019-05-26T00:01:07.550Z,13.90
2019-05-26T00:03:38.069Z,13.80
2019-05-26T00:06:08.603Z,13.80
2019-05-26T00:08:39.256Z,13.70
2019-05-26T00:11:09.909Z,13.60
2019-05-26T00:13:40.343Z,13.60
2019-05-26T00:16:10.942Z,13.60
2019-05-26T00:18:41.401Z,13.60
2019-05-26T00:21:11.885Z,13.60
2019-05-26T00:23:42.423Z,13.60
2019-05-26T00:26:13.013Z,13.60
2019-05-26T00:28:43.513Z,13.60
2019-05-26T00:31:14.118Z,13.60
2019-05-26T00:33:44.634Z,13.60
2019-05-26T00:36:15.083Z,13.50
2019-05-26T00:38:46.308Z,13.50
2019-05-26T00:41:16.976Z,13.40
2019-05-26T00:43:47.536Z,13.50
2019-05-26T00:46:18.197Z,13.40
2019-05-26T00:48:49.110Z,13.30
2019-05-26T00:51:19.695Z,13.30
2019-05-26T00:53:50.441Z,13.20
2019-05-26T00:56:21.077Z,13.20
2019-05-26T00:58:53.190Z,13.20
2019-05-26T01:01:23.699Z,13.10
2019-05-26T01:03:54.218Z,13.10
2019-05-26T01:06:24.635Z,13.10
2019-05-26T01:08:55.209Z,13.00
2019-05-26T01:11:25.664Z,13.00
2019-05-26T01:13:56.121Z,13.00
2019-05-26T01:16:26.658Z,13.00
2019-05-26T01:18:57.339Z,12.90
2019-05-26T01:21:27.968Z,12.90
2019-05-26T01:23:58.452Z,12.90
2019-05-26T01:26:28.980Z,12.90
2019-05-26T01:28:59.455Z,12.90
2019-05-26T01:31:29.956Z,12.90
2019-05-26T01:34:00.518Z,12.80
2019-05-26T01:36:31.634Z,12.80
2019-05-26T01:39:02.353Z,12.80
2019-05-26T01:41:32.888Z,12.70
2019-05-26T01:44:03.496Z,12.70
2019-05-26T01:46:34.358Z,12.60
2019-05-26T01:49:04.992Z,12.60
2019-05-26T01:51:35.443Z,12.60
2019-05-26T01:54:07.178Z,12.60
2019-05-26T01:56:37.773Z,12.60
2019-05-26T01:59:09.072Z,12.60
2019-05-26T02:01:39.586Z,12.60
2019-05-26T02:04:10.012Z,12.60
2019-05-26T02:06:40.464Z,12.70
2019-05-26T02:09:11.059Z,12.60
2019-05-26T02:11:41.562Z,12.70
2019-05-26T02:14:14.462Z,12.60
2019-05-26T02:16:44.190Z,12.60
2019-05-26T02:19:14.991Z,12.60
2019-05-26T02:21:46.204Z,12.60
2019-05-26T02:24:16.596Z,12.60
2019-05-26T02:26:47.127Z,12.50
2019-05-26T02:29:17.578Z,12.40
2019-05-26T02:31:48.184Z,12.40
2019-05-26T02:34:18.637Z,12.50
2019-05-26T02:36:55.423Z,12.50
2019-05-26T02:39:25.951Z,12.50
2019-05-26T02:41:56.542Z,12.40
2019-05-26T02:44:27.023Z,12.40
2019-05-26T02:46:57.426Z,12.40
2019-05-26T02:49:27.991Z,12.50
2019-05-26T02:51:58.400Z,12.40
2019-05-26T02:54:28.845Z,12.40
2019-05-26T02:56:59.484Z,12.40
2019-05-26T02:59:30.779Z,12.40
2019-05-26T03:02:04.251Z,12.40
2019-05-26T03:04:33.792Z,12.40
2019-05-26T03:07:04.949Z,12.50
2019-05-26T03:09:39.450Z,12.40
2019-05-26T03:12:10.162Z,12.40
2019-05-26T03:14:43.965Z,12.40
2019-05-26T03:17:17.353Z,12.40
2019-05-26T03:19:51.544Z,12.30
2019-05-26T03:22:25.482Z,12.30
2019-05-26T03:24:59.455Z,12.30
2019-05-26T03:27:29.984Z,12.30
2019-05-26T03:30:00.629Z,12.30
2019-05-26T03:32:31.086Z,12.30
2019-05-26T03:35:01.731Z,12.30
2019-05-26T03:37:32.403Z,12.30
2019-05-26T03:40:02.950Z,12.20
2019-05-26T03:42:34.544Z,12.10
2019-05-26T03:45:07.945Z,12.10
2019-05-26T03:47:38.821Z,12.10
2019-05-26T03:50:10.019Z,12.20
2019-05-26T03:52:40.440Z,12.30
2019-05-26T03:55:11.204Z,12.40
2019-05-26T03:57:41.809Z,12.50
2019-05-26T04:00:13.420Z,12.60
2019-05-26T04:02:44.040Z,12.80
2019-05-26T04:05:14.669Z,12.90
2019-05-26T04:07:45.221Z,13.00
2019-05-26T04:10:16.146Z,13.10
2019-05-26T04:12:46.743Z,13.10
2019-05-26T04:15:18.376Z,13.20
2019-05-26T04:17:48.956Z,13.20
2019-05-26T04:20:19.519Z,13.30
2019-05-26T04:22:49.970Z,13.40
2019-05-26T04:25:27.695Z,13.50
2019-05-26T04:27:58.139Z,13.60
2019-05-26T04:30:28.667Z,13.70
2019-05-26T04:32:59.143Z,13.80
2019-05-26T04:35:29.636Z,14.10
2019-05-26T04:38:00.180Z,14.30
2019-05-26T04:40:31.032Z,14.70
2019-05-26T04:43:01.567Z,15.40
2019-05-26T04:45:32.677Z,16.00
2019-05-26T04:48:03.298Z,16.70
2019-05-26T04:50:33.771Z,17.40
2019-05-26T04:53:07.113Z,18.30
2019-05-26T04:55:36.729Z,18.80
2019-05-26T04:58:07.419Z,19.30
2019-05-26T05:00:38.777Z,19.60
2019-05-26T05:03:09.433Z,19.80
2019-05-26T05:05:41.438Z,19.90
2019-05-26T05:08:11.980Z,20.40
2019-05-26T05:10:43.106Z,20.50
2019-05-26T05:13:13.784Z,20.30
2019-05-26T05:15:44.286Z,20.40
2019-05-26T05:18:14.683Z,20.70
2019-05-26T05:20:45.174Z,21.40
2019-05-26T05:23:15.649Z,21.50
2019-05-26T05:25:46.136Z,21.50
2019-05-26T05:28:16.639Z,21.10
2019-05-26T05:30:47.053Z,20.40
2019-05-26T05:33:18.104Z,19.70
2019-05-26T05:35:48.585Z,19.20
2019-05-26T05:38:19.214Z,18.80
2019-05-26T05:40:59.102Z,19.00
2019-05-26T05:43:22.151Z,19.90
2019-05-26T05:45:52.656Z,21.40
2019-05-26T05:48:23.180Z,21.90
2019-05-26T05:50:53.720Z,22.30
2019-05-26T05:53:24.858Z,22.90
2019-05-26T05:55:55.462Z,23.50
2019-05-26T05:58:26.257Z,23.60
2019-05-26T06:00:57.759Z,23.60
2019-05-26T06:03:28.389Z,23.30
2019-05-26T06:05:59.077Z,22.80
2019-05-26T06:08:29.692Z,22.30
2019-05-26T06:11:15.478Z,22.70
2019-05-26T06:13:34.609Z,23.50
2019-05-26T06:16:05.585Z,24.10
2019-05-26T06:18:35.986Z,24.30
2019-05-26T06:21:06.546Z,24.10
2019-05-26T06:23:37.297Z,23.80
2019-05-26T06:26:08.023Z,23.40
2019-05-26T06:28:38.652Z,23.10
2019-05-26T06:31:09.222Z,23.00
2019-05-26T06:33:39.803Z,22.90
2019-05-26T06:36:11.223Z,22.70
2019-05-26T06:38:41.728Z,22.30
2019-05-26T06:41:34.592Z,21.90
2019-05-26T06:44:05.510Z,21.50
2019-05-26T06:46:36.699Z,21.20
2019-05-26T06:49:07.350Z,21.10
2019-05-26T06:51:37.979Z,20.90
2019-05-26T06:54:08.574Z,21.10
2019-05-26T06:56:39.024Z,21.20
2019-05-26T06:59:09.581Z,21.20
2019-05-26T07:01:40.170Z,21.00
2019-05-26T07:04:10.687Z,20.60
2019-05-26T07:06:41.118Z,20.50
2019-05-26T07:09:11.578Z,20.30
2019-05-26T07:11:54.283Z,20.30
2019-05-26T07:14:14.876Z,20.30
2019-05-26T07:16:45.302Z,20.50
2019-05-26T07:19:16.200Z,20.70
2019-05-26T07:21:46.777Z,20.80
2019-05-26T07:24:17.373Z,20.70
2019-05-26T07:26:47.901Z,20.50
2019-05-26T07:29:18.452Z,20.30
2019-05-26T07:31:49.531Z,20.20
2019-05-26T07:34:20.278Z,20.10
2019-05-26T07:36:50.691Z,20.00
2019-05-26T07:39:21.225Z,19.90
2019-05-26T07:42:08.595Z,19.90
2019-05-26T07:44:23.953Z,19.90
2019-05-26T07:46:55.495Z,20.00
2019-05-26T07:49:27.765Z,20.00
2019-05-26T07:51:59.233Z,20.10
2019-05-26T07:54:29.713Z,20.40
2019-05-26T07:57:00.315Z,20.50
2019-05-26T07:59:30.958Z,20.90
2019-05-26T08:02:03.455Z,21.30
2019-05-26T08:04:33.944Z,21.40
2019-05-26T08:07:04.760Z,21.60
2019-05-26T08:09:35.335Z,21.90
2019-05-26T08:12:06.202Z,22.00
2019-05-26T08:14:36.809Z,21.90
2019-05-26T08:17:07.397Z,21.90
2019-05-26T08:19:38.002Z,21.90
2019-05-26T08:22:10.339Z,22.00
2019-05-26T08:24:40.859Z,22.00
2019-05-26T08:27:11.482Z,22.10
2019-05-26T08:29:41.891Z,22.30
2019-05-26T08:32:15.046Z,22.50
2019-05-26T08:34:44.793Z,22.60
2019-05-26T08:37:15.373Z,22.60
2019-05-26T08:39:48.412Z,22.50
2019-05-26T08:42:26.800Z,22.60
2019-05-26T08:47:51.965Z,22.60
2019-05-26T08:50:25.012Z,22.70
2019-05-26T08:52:55.631Z,22.70
2019-05-26T08:55:26.654Z,22.80
2019-05-26T08:57:57.087Z,22.80
2019-05-26T09:00:28.024Z,23.10
2019-05-26T09:03:00.170Z,23.40
2019-05-26T09:05:30.724Z,24.30
2019-05-26T09:08:01.869Z,26.20
2019-05-26T09:10:32.430Z,27.60
2019-05-26T09:13:03.358Z,28.60
2019-05-26T09:15:36.758Z,29.20
2019-05-26T09:18:07.529Z,29.90
2019-05-26T09:20:39.822Z,30.50
2019-05-26T09:23:10.416Z,30.80
2019-05-26T09:25:41.047Z,30.50
2019-05-26T09:28:12.906Z,30.80
2019-05-26T09:30:43.723Z,31.10
2019-05-26T09:33:14.233Z,31.40
2019-05-26T09:35:45.048Z,31.70
2019-05-26T09:38:15.633Z,31.70
2019-05-26T09:40:46.199Z,31.30
2019-05-26T09:43:17.757Z,30.80
2019-05-26T09:45:52.142Z,30.20
2019-05-26T09:48:23.107Z,29.70
2019-05-26T09:50:55.298Z,29.60
2019-05-26T09:53:25.908Z,29.50
2019-05-26T09:55:56.572Z,29.10
2019-05-26T09:58:27.194Z,28.50
2019-05-26T10:00:59.561Z,27.90
2019-05-26T10:03:31.187Z,27.50
2019-05-26T10:06:01.825Z,27.40
2019-05-26T10:08:32.434Z,27.30
2019-05-26T10:11:03.075Z,27.50
2019-05-26T10:13:33.588Z,28.00
2019-05-26T10:16:05.722Z,28.50
2019-05-26T10:18:36.123Z,28.60
2019-05-26T10:21:06.713Z,28.50
2019-05-26T10:23:39.130Z,28.90
2019-05-26T10:26:09.371Z,29.60
2019-05-26T10:28:40.241Z,29.80
2019-05-26T10:31:11.273Z,30.10
2019-05-26T10:33:41.823Z,30.00
2019-05-26T10:36:12.467Z,29.30
2019-05-26T10:38:43.276Z,28.70
2019-05-26T10:41:13.849Z,28.30
2019-05-26T10:43:47.257Z,27.90
2019-05-26T10:46:16.527Z,27.70
2019-05-26T10:51:47.355Z,27.80
2019-05-26T10:54:17.954Z,27.50
2019-05-26T10:56:48.926Z,27.40
2019-05-26T10:59:19.514Z,27.30
2019-05-26T11:01:50.135Z,27.70
2019-05-26T11:04:22.581Z,28.10
2019-05-26T11:06:53.731Z,28.60
2019-05-26T11:09:24.331Z,28.90
2019-05-26T11:11:54.900Z,29.10
2019-05-26T11:14:25.455Z,29.10
2019-05-26T11:16:56.034Z,28.80
2019-05-26T11:19:26.597Z,28.20
2019-05-26T11:21:57.114Z,28.10
2019-05-26T11:24:27.665Z,28.10
2019-05-26T11:27:08.115Z,28.40
2019-05-26T11:29:30.366Z,28.90
2019-05-26T11:32:00.883Z,29.20
2019-05-26T11:34:31.526Z,29.40
2019-05-26T11:37:02.049Z,29.60
2019-05-26T11:39:32.602Z,29.70
2019-05-26T11:42:12.967Z,29.50
2019-05-26T11:44:35.288Z,29.50
2019-05-26T11:47:05.946Z,29.70
2019-05-26T11:49:36.383Z,29.60
2019-05-26T11:52:06.969Z,29.50
2019-05-26T11:54:37.434Z,29.50
2019-05-26T11:57:08.144Z,29.50
2019-05-26T11:59:38.648Z,29.40
2019-05-26T12:02:10.316Z,29.40
2019-05-26T12:04:42.421Z,29.40
2019-05-26T12:07:12.935Z,29.40
2019-05-26T12:09:43.648Z,29.50
2019-05-26T12:12:14.253Z,29.40
2019-05-26T12:14:44.656Z,29.50
2019-05-26T12:17:15.115Z,29.50
2019-05-26T12:19:46.456Z,29.40
2019-05-26T12:22:17.099Z,29.30
2019-05-26T12:24:47.726Z,29.20
2019-05-26T12:27:18.307Z,29.20
2019-05-26T12:29:48.766Z,29.20
2019-05-26T12:32:19.413Z,29.20
2019-05-26T12:34:50.502Z,29.20
2019-05-26T12:37:21.055Z,29.10
2019-05-26T12:39:51.556Z,29.00
2019-05-26T12:42:22.223Z,28.90
2019-05-26T12:44:52.793Z,28.80
2019-05-26T12:47:23.372Z,28.60
2019-05-26T12:49:53.943Z,28.40
2019-05-26T12:52:24.434Z,28.30
2019-05-26T12:54:55.659Z,28.10
2019-05-26T12:57:26.275Z,28.10
2019-05-26T12:59:56.923Z,27.90
2019-05-26T13:02:27.415Z,27.80
2019-05-26T13:04:59.704Z,27.80
2019-05-26T13:07:30.262Z,27.80
2019-05-26T13:10:00.752Z,27.70
2019-05-26T13:12:31.196Z,27.50
2019-05-26T13:15:05.810Z,27.60
2019-05-26T13:17:33.939Z,27.60
2019-05-26T13:20:09.619Z,27.50
2019-05-26T13:22:41.041Z,27.40
2019-05-26T13:25:14.098Z,27.30
2019-05-26T13:27:44.535Z,27.20
2019-05-26T13:30:21.338Z,27.20
2019-05-26T13:32:53.361Z,27.20
2019-05-26T13:35:24.184Z,27.10
2019-05-26T13:37:54.765Z,27.00
2019-05-26T13:40:25.255Z,27.00
2019-05-26T13:42:55.657Z,26.90
2019-05-26T13:45:26.129Z,26.90
2019-05-26T13:47:56.641Z,26.90
2019-05-26T13:50:27.340Z,26.80
2019-05-26T13:52:57.937Z,26.80
2019-05-26T13:55:29.217Z,26.80
2019-05-26T13:57:59.730Z,26.70
2019-05-26T14:00:30.414Z,26.70
2019-05-26T14:03:02.101Z,26.70
2019-05-26T14:05:33.640Z,26.70
2019-05-26T14:08:04.230Z,26.80
2019-05-26T14:10:37.220Z,26.90
2019-05-26T14:13:08.660Z,26.90
2019-05-26T14:15:39.543Z,26.90
2019-05-26T14:18:11.310Z,26.90
2019-05-26T14:20:43.430Z,26.80
2019-05-26T14:23:13.908Z,26.80
2019-05-26T14:25:44.301Z,26.80
2019-05-26T14:28:14.926Z,26.70
2019-05-26T14:30:45.656Z,26.60
2019-05-26T14:33:16.984Z,26.50
2019-05-26T14:35:47.482Z,26.40
2019-05-26T14:38:18.009Z,26.30
2019-05-26T14:40:48.438Z,26.30
2019-05-26T14:43:20.062Z,26.20
2019-05-26T14:45:53.634Z,26.20
2019-05-26T14:48:24.327Z,26.20
2019-05-26T14:50:54.827Z,26.20
2019-05-26T14:53:25.299Z,26.20
2019-05-26T14:55:55.887Z,26.20
2019-05-26T14:58:26.428Z,26.10
2019-05-26T15:00:57.127Z,26.00
2019-05-26T15:03:27.593Z,26.00
2019-05-26T15:06:06.066Z,26.00
2019-05-26T15:08:31.182Z,25.90
2019-05-26T15:11:01.690Z,25.90
2019-05-26T15:13:32.459Z,25.90
2019-05-26T15:16:10.136Z,25.80
2019-05-26T15:18:40.745Z,25.90
2019-05-26T15:21:13.140Z,25.90
2019-05-26T15:23:43.706Z,25.90
2019-05-26T15:26:14.239Z,25.80
2019-05-26T15:28:44.774Z,25.80
2019-05-26T15:31:15.223Z,25.80
2019-05-26T15:33:45.888Z,25.80
2019-05-26T15:36:16.460Z,25.70
2019-05-26T15:38:47.200Z,25.60
2019-05-26T15:41:17.838Z,25.60
2019-05-26T15:43:49.172Z,25.50
2019-05-26T15:46:25.198Z,25.40
2019-05-26T15:48:51.987Z,25.20
2019-05-26T15:51:22.408Z,25.10
2019-05-26T15:53:53.954Z,25.00
2019-05-26T15:56:24.596Z,24.90
2019-05-26T15:58:55.501Z,24.90
2019-05-26T16:01:26.054Z,24.80
2019-05-26T16:04:01.443Z,24.80
2019-05-26T16:06:33.854Z,24.70
2019-05-26T16:09:09.484Z,24.70
2019-05-26T16:11:43.257Z,24.60
2019-05-26T16:14:13.725Z,24.60
2019-05-26T16:16:44.292Z,24.60
2019-05-26T16:19:16.273Z,24.50
2019-05-26T16:21:46.910Z,24.50
2019-05-26T16:24:17.635Z,24.40
2019-05-26T16:26:48.223Z,24.40
2019-05-26T16:29:19.743Z,24.30
2019-05-26T16:31:50.544Z,24.30
2019-05-26T16:34:21.177Z,24.30
2019-05-26T16:36:51.917Z,24.20
2019-05-26T16:39:36.069Z,24.20
2019-05-26T16:41:54.862Z,24.20
2019-05-26T16:44:25.429Z,24.10
2019-05-26T16:46:57.086Z,24.10
2019-05-26T16:49:28.179Z,24.10
2019-05-26T16:51:58.753Z,24.00
2019-05-26T16:54:29.281Z,24.00
2019-05-26T16:57:00.649Z,24.00
2019-05-26T16:59:31.291Z,23.90
2019-05-26T17:02:01.926Z,23.90
2019-05-26T17:04:32.449Z,23.80
2019-05-26T17:07:04.080Z,23.80
2019-05-26T17:09:34.563Z,23.80
2019-05-26T17:12:05.485Z,23.70
2019-05-26T17:14:36.088Z,23.70
2019-05-26T17:17:14.740Z,23.60
2019-05-26T17:19:40.658Z,23.60
2019-05-26T17:22:11.211Z,23.60
2019-05-26T17:24:41.823Z,23.50
2019-05-26T17:27:12.494Z,23.50
2019-05-26T17:29:43.083Z,23.40
2019-05-26T17:32:13.634Z,23.40
2019-05-26T17:34:44.114Z,23.30
2019-05-26T17:37:14.543Z,23.30
2019-05-26T17:39:45.220Z,23.20
2019-05-26T17:42:15.998Z,23.20
2019-05-26T17:44:46.602Z,23.10
2019-05-26T17:47:29.345Z,23.00
2019-05-26T17:49:49.347Z,23.00
2019-05-26T17:52:19.897Z,22.90
2019-05-26T17:54:51.551Z,22.90
2019-05-26T17:57:22.295Z,22.80
2019-05-26T17:59:54.145Z,22.70
2019-05-26T18:02:25.096Z,22.60
2019-05-26T18:04:55.624Z,22.60
2019-05-26T18:07:27.085Z,22.50
2019-05-26T18:09:57.542Z,22.50
2019-05-26T18:12:28.658Z,22.40
2019-05-26T18:14:59.628Z,22.30
2019-05-26T18:17:45.960Z,22.20
2019-05-26T18:20:03.026Z,22.20
2019-05-26T18:22:33.574Z,22.10
2019-05-26T18:25:05.524Z,22.10
2019-05-26T18:27:36.176Z,22.00
2019-05-26T18:30:10.562Z,22.00
2019-05-26T18:32:41.993Z,21.90
2019-05-26T18:35:14.078Z,21.80
2019-05-26T18:37:44.616Z,21.70
2019-05-26T18:40:16.464Z,21.70
2019-05-26T18:42:46.980Z,21.70
2019-05-26T18:45:18.512Z,21.60
2019-05-26T18:48:01.855Z,21.60
2019-05-26T18:50:21.325Z,21.50
2019-05-26T18:52:51.843Z,21.40
2019-05-26T18:55:26.454Z,21.30
2019-05-26T18:57:56.908Z,21.30
2019-05-26T19:00:30.832Z,21.10
2019-05-26T19:03:00.142Z,21.10
2019-05-26T19:05:38.769Z,21.10
2019-05-26T19:08:10.901Z,21.00
2019-05-26T19:10:41.414Z,21.00
2019-05-26T19:13:11.809Z,20.90
2019-05-26T19:15:42.441Z,20.80
2019-05-26T19:18:19.924Z,20.70
2019-05-26T19:20:45.516Z,20.60
2019-05-26T19:23:16.801Z,20.50
2019-05-26T19:25:47.388Z,20.40
2019-05-26T19:28:17.847Z,20.30
2019-05-26T19:30:48.558Z,20.30
2019-05-26T19:33:19.051Z,20.30
2019-05-26T19:35:49.578Z,20.20
2019-05-26T19:38:19.975Z,20.20
2019-05-26T19:40:50.425Z,20.10
2019-05-26T19:43:23.101Z,20.10
2019-05-26T19:45:53.565Z,20.00
2019-05-26T19:48:35.927Z,19.90
2019-05-26T19:50:56.353Z,19.80
2019-05-26T19:53:26.854Z,19.80
2019-05-26T19:55:57.440Z,19.70
2019-05-26T19:58:28.775Z,19.60
2019-05-26T20:00:59.381Z,19.50
2019-05-26T20:03:29.942Z,19.40
2019-05-26T20:06:00.563Z,19.30
2019-05-26T20:08:31.953Z,19.20
2019-05-26T20:11:05.983Z,19.10
2019-05-26T20:13:36.542Z,19.10
2019-05-26T20:16:07.191Z,19.00
2019-05-26T20:18:37.787Z,19.00
2019-05-26T20:21:08.501Z,18.90
2019-05-26T20:23:39.061Z,18.90
2019-05-26T20:26:09.697Z,18.80
2019-05-26T20:28:40.195Z,18.70
2019-05-26T20:31:10.805Z,18.60
2019-05-26T20:33:41.201Z,18.60
2019-05-26T20:36:11.942Z,18.60
2019-05-26T20:38:42.447Z,18.60
2019-05-26T20:41:13.046Z,18.50
2019-05-26T20:43:43.538Z,18.40
2019-05-26T20:46:14.155Z,18.30
2019-05-26T20:48:50.211Z,18.30
2019-05-26T20:51:20.802Z,18.20
2019-05-26T20:53:51.282Z,18.10
2019-05-26T20:56:21.827Z,18.10
2019-05-26T20:58:52.361Z,18.10
2019-05-26T21:04:23.129Z,18.10
2019-05-26T21:06:53.805Z,18.10
2019-05-26T21:09:25.148Z,18.00
2019-05-26T21:11:55.547Z,18.00
2019-05-26T21:14:26.012Z,17.90
2019-05-26T21:16:56.495Z,17.80
2019-05-26T21:19:27.447Z,17.70
2019-05-26T21:21:57.970Z,17.70
2019-05-26T21:24:28.497Z,17.60
2019-05-26T21:26:59.016Z,17.50
2019-05-26T21:29:29.556Z,17.50
2019-05-26T21:32:00.023Z,17.40
2019-05-26T21:34:32.030Z,17.30
2019-05-26T21:37:03.655Z,17.20
2019-05-26T21:39:34.164Z,17.10
2019-05-26T21:42:04.757Z,17.10
2019-05-26T21:44:35.314Z,17.10
2019-05-26T21:47:05.908Z,17.00
2019-05-26T21:49:37.293Z,16.90
2019-05-26T21:52:07.921Z,16.90
2019-05-26T21:54:41.179Z,16.80
2019-05-26T21:57:11.001Z,16.80
2019-05-26T21:59:41.590Z,16.80
2019-05-26T22:02:12.289Z,16.80
2019-05-26T22:04:42.801Z,16.80
2019-05-26T22:07:13.361Z,16.80
2019-05-26T22:09:44.734Z,16.80
2019-05-26T22:12:15.402Z,16.80
2019-05-26T22:14:46.082Z,16.80
2019-05-26T22:17:16.570Z,16.80
2019-05-26T22:19:47.436Z,16.90
2019-05-26T22:22:17.930Z,16.80
2019-05-26T22:24:48.532Z,16.90
2019-05-26T22:27:18.922Z,16.80
2019-05-26T22:29:49.482Z,16.80
2019-05-26T22:32:20.047Z,16.80
2019-05-26T22:34:50.586Z,16.80
2019-05-26T22:37:21.058Z,16.80
2019-05-26T22:39:52.246Z,16.70
2019-05-26T22:42:22.771Z,16.70
2019-05-26T22:44:54.873Z,16.70
2019-05-26T22:47:25.548Z,16.60
2019-05-26T22:49:57.710Z,16.60
2019-05-26T22:52:28.356Z,16.50
2019-05-26T22:54:59.794Z,16.50
2019-05-26T22:57:30.399Z,16.50
2019-05-26T23:00:01.014Z,16.40
2019-05-26T23:02:31.536Z,16.40
2019-05-26T23:05:02.011Z,16.40
2019-05-26T23:07:32.387Z,16.30
2019-05-26T23:10:05.050Z,16.30
2019-05-26T23:12:35.437Z,16.30
2019-05-26T23:15:10.198Z,16.20
2019-05-26T23:17:40.805Z,16.20
2019-05-26T23:20:12.240Z,16.20
2019-05-26T23:22:42.744Z,16.20
2019-05-26T23:25:13.910Z,16.10
2019-05-26T23:27:44.465Z,16.10
2019-05-26T23:30:15.042Z,16.00
2019-05-26T23:32:45.494Z,16.00
2019-05-26T23:35:17.637Z,16.00
2019-05-26T23:37:48.161Z,15.90
2019-05-26T23:40:18.825Z,15.80
2019-05-26T23:42:49.281Z,15.80
2019-05-26T23:45:19.850Z,15.70
2019-05-26T23:47:50.274Z,15.60
2019-05-26T23:50:20.795Z,15.60
2019-05-26T23:52:51.312Z,15.60
2019-05-26T23:55:21.800Z,15.60
2019-05-26T23:57:52.201Z,15.60
